Hauptseite
METAR-TAF:

METAR-TAF

Flughäfen :

Flughafen Genf

Genf, Schweiz

Breite: 46-15N, Länge: 006-08E, Höhe: 420 m

Beobachtung

Neuester Wetterbericht von vor 22 Minuten, um 14:20 UTC
Wind 6 kt aus Ost, variierte zwischen Ost/Nordost und Süd/Südost
Temperatur 27°C
Luftfeuchtigkeit 32%
Luftdruck 1018 hPa
Sichtweite 10 km oder mehr
keine Wolken unter 1500 m und keine Kumulonimbus oder Gewitterwolken

METAR: LSGG 081420Z 10006KT 070V160 CAVOK 27/09 Q1018 NOSIG

Zeit: 16:42 (14:42 UTC)

Prognose

Neuester Wetterbericht von vor 17 Minuten, um 14:25 UTC
Gültige Prognose vom 08 um 15 UTC bis 09 um 21 UTC
Wind 5 kt aus Ost/Nordost
Sichtweite 10 km oder mehr
keine Wolken unter 1500 m und keine Kumulonimbus oder Gewitterwolken

TAF: LSGG 081425Z 0815/0921 06005KT CAVOK TX28/0815Z TN14/0904Z TX32/0915Z

Wetterbeobachtungen und Prognosen von mehr als 4000 Flughäfen (METAR und TAF Bericht).

Die verfügbaren Stationen werden durch gelbe und rote Markierungen auf der Karte dargestellt.

Führen Sie die Maus auf sie, um den Namen der Station zu sehen.

Darauf klicken, um die Beobachtung von Wetterbeobachtungen und Prognosen zu sehen.

Um die Karte zu ändern : klicken Sie auf den grünen Tasten mit einem schwarzen Kreuz Zum Vergrößern, auf den grünen Button mit einem Gedankenstrich zu verkleinern, oder auf die grünen Pfeile für benachbarte Karten.


METAR-TAF: